createdAt,value
2024-03-14T00:02:03.204Z,5.15
2024-03-14T00:04:30.016Z,6.15
2024-03-14T00:06:58.537Z,5.57
2024-03-14T00:09:26.399Z,6.57
2024-03-14T00:11:54.064Z,5.85
2024-03-14T00:14:20.807Z,5.50
2024-03-14T00:16:47.461Z,5.85
2024-03-14T00:19:14.442Z,5.32
2024-03-14T00:21:42.933Z,5.47
2024-03-14T00:24:10.086Z,5.57
2024-03-14T00:26:36.855Z,5.68
2024-03-14T00:29:03.962Z,5.82
2024-03-14T00:31:30.864Z,6.05
2024-03-14T00:33:57.825Z,6.80
2024-03-14T00:36:25.185Z,5.50
2024-03-14T00:38:52.130Z,6.07
2024-03-14T00:41:20.897Z,6.45
2024-03-14T00:43:48.940Z,6.00
2024-03-14T00:46:16.267Z,7.18
2024-03-14T00:48:44.330Z,6.03
2024-03-14T00:51:11.630Z,6.63
2024-03-14T00:53:38.583Z,6.53
2024-03-14T00:56:06.270Z,6.50
2024-03-14T00:58:33.193Z,6.65
2024-03-14T01:01:00.706Z,7.88
2024-03-14T01:03:28.756Z,7.35
2024-03-14T01:05:59.108Z,7.07
2024-03-14T01:08:28.609Z,7.88
2024-03-14T01:10:55.295Z,6.80
2024-03-14T01:13:24.335Z,7.72
2024-03-14T01:15:51.127Z,8.05
2024-03-14T01:18:17.793Z,8.25
2024-03-14T01:20:44.509Z,7.80
2024-03-14T01:23:11.259Z,7.47
2024-03-14T01:25:37.992Z,7.22
2024-03-14T01:28:06.185Z,7.38
2024-03-14T01:30:33.293Z,7.45
2024-03-14T01:33:00.583Z,7.70
2024-03-14T01:35:27.403Z,8.73
2024-03-14T01:37:54.038Z,8.07
2024-03-14T01:40:20.713Z,8.27
2024-03-14T01:42:54.516Z,8.90
2024-03-14T01:45:22.236Z,8.60
2024-03-14T01:47:50.121Z,9.50
2024-03-14T01:50:17.483Z,8.15
2024-03-14T01:52:45.542Z,8.63
2024-03-14T01:55:12.780Z,8.27
2024-03-14T01:57:40.471Z,9.25
2024-03-14T02:00:07.620Z,9.70
2024-03-14T02:02:41.600Z,9.57
2024-03-14T02:05:16.451Z,10.07
2024-03-14T02:07:43.784Z,8.23
2024-03-14T02:10:14.699Z,9.38
2024-03-14T02:12:42.299Z,9.70
2024-03-14T02:15:09.752Z,8.23
2024-03-14T02:17:37.120Z,10.02
2024-03-14T02:20:07.040Z,9.18
2024-03-14T02:22:33.803Z,9.82
2024-03-14T02:25:00.617Z,9.50
2024-03-14T02:27:28.434Z,11.10
2024-03-14T02:29:55.321Z,11.43
2024-03-14T02:32:21.985Z,10.20
2024-03-14T02:34:48.889Z,9.75
2024-03-14T02:37:16.220Z,10.35
2024-03-14T02:39:43.993Z,10.30
2024-03-14T02:42:12.845Z,10.57
2024-03-14T02:44:39.555Z,9.95
2024-03-14T02:47:08.475Z,10.40
2024-03-14T02:49:35.886Z,9.82
2024-03-14T02:52:03.609Z,10.23
2024-03-14T02:54:31.577Z,10.00
2024-03-14T02:56:59.229Z,10.60
2024-03-14T02:59:27.928Z,10.63
2024-03-14T03:01:55.374Z,9.48
2024-03-14T03:04:22.078Z,10.38
2024-03-14T03:06:56.089Z,9.18
2024-03-14T03:09:23.181Z,8.63
2024-03-14T03:11:50.854Z,10.10
2024-03-14T03:14:17.843Z,9.40
2024-03-14T03:16:45.831Z,8.35
2024-03-14T03:19:14.312Z,9.15
2024-03-14T03:21:41.325Z,8.52
2024-03-14T03:24:12.845Z,9.05
2024-03-14T03:26:42.014Z,8.40
2024-03-14T03:29:08.893Z,9.10
2024-03-14T03:31:36.064Z,8.60
2024-03-14T03:34:03.059Z,10.50
2024-03-14T03:36:30.980Z,10.68
2024-03-14T03:38:58.238Z,9.90
2024-03-14T03:41:25.302Z,10.40
2024-03-14T03:43:52.156Z,11.52
2024-03-14T03:46:19.672Z,10.73
2024-03-14T03:48:46.493Z,10.85
2024-03-14T03:51:19.357Z,10.73
2024-03-14T03:53:46.459Z,9.40
2024-03-14T03:56:15.007Z,9.90
2024-03-14T03:58:44.089Z,10.80
2024-03-14T04:01:14.634Z,10.90
2024-03-14T04:03:42.383Z,10.30
2024-03-14T04:06:14.334Z,9.75
2024-03-14T04:08:41.167Z,10.68
2024-03-14T04:11:08.711Z,10.93
2024-03-14T04:13:37.068Z,11.48
2024-03-14T04:16:06.861Z,10.05
2024-03-14T04:18:36.271Z,12.15
2024-03-14T04:21:09.178Z,11.07
2024-03-14T04:23:36.872Z,11.55
2024-03-14T04:26:04.214Z,10.02
2024-03-14T04:28:31.124Z,11.07
2024-03-14T04:30:58.787Z,10.35
2024-03-14T04:33:25.653Z,9.85
2024-03-14T04:35:53.398Z,10.32
2024-03-14T04:38:24.596Z,10.38
2024-03-14T04:40:51.392Z,10.38
2024-03-14T04:43:19.331Z,10.43
2024-03-14T04:45:46.944Z,10.85
2024-03-14T04:48:14.262Z,9.40
2024-03-14T04:50:44.235Z,9.38
2024-03-14T04:53:11.409Z,9.75
2024-03-14T04:55:38.051Z,9.25
2024-03-14T04:58:05.037Z,9.50
2024-03-14T05:00:32.715Z,9.73
2024-03-14T05:02:59.988Z,8.55
2024-03-14T05:05:26.985Z,8.40
2024-03-14T05:07:54.703Z,9.25
2024-03-14T05:10:22.585Z,9.23
2024-03-14T05:12:50.189Z,8.35
2024-03-14T05:15:17.747Z,8.40
2024-03-14T05:17:47.119Z,8.55
2024-03-14T05:20:15.309Z,8.27
2024-03-14T05:22:43.108Z,7.32
2024-03-14T05:25:14.205Z,8.27
2024-03-14T05:27:51.070Z,7.72
2024-03-14T05:30:24.549Z,7.68
2024-03-14T05:32:52.507Z,7.03
2024-03-14T05:35:19.489Z,7.90
2024-03-14T05:37:46.517Z,6.85
2024-03-14T05:40:13.490Z,6.45
2024-03-14T05:42:40.707Z,7.53
2024-03-14T05:45:08.847Z,7.63
2024-03-14T05:47:36.913Z,7.07
2024-03-14T05:50:08.630Z,7.30
2024-03-14T05:52:35.849Z,7.40
2024-03-14T05:55:06.934Z,7.47
2024-03-14T05:57:34.381Z,7.78
2024-03-14T06:00:01.269Z,7.53
2024-03-14T06:02:28.888Z,7.00
2024-03-14T06:04:55.734Z,7.25
2024-03-14T06:07:23.843Z,6.78
2024-03-14T06:09:52.178Z,6.43
2024-03-14T06:12:20.102Z,7.05
2024-03-14T06:14:47.758Z,7.53
2024-03-14T06:17:16.638Z,6.68
2024-03-14T06:19:43.550Z,7.15
2024-03-14T06:22:10.635Z,7.03
2024-03-14T06:24:37.879Z,7.35
2024-03-14T06:27:05.147Z,6.97
2024-03-14T06:29:32.525Z,7.63
2024-03-14T06:31:59.787Z,7.88
2024-03-14T06:34:26.784Z,8.00
2024-03-14T06:36:53.448Z,7.60
2024-03-14T06:39:21.805Z,7.63
2024-03-14T06:41:48.888Z,7.40
2024-03-14T06:44:15.620Z,7.55
2024-03-14T06:46:43.659Z,8.27
2024-03-14T06:49:14.528Z,7.95
2024-03-14T06:51:44.962Z,5.88
2024-03-14T06:54:13.550Z,5.35
2024-03-14T06:56:41.456Z,4.45
2024-03-14T06:59:09.278Z,4.07
2024-03-14T07:01:36.519Z,3.92
2024-03-14T07:04:04.371Z,3.40
2024-03-14T07:06:33.104Z,3.42
2024-03-14T07:09:01.571Z,3.20
2024-03-14T07:11:29.921Z,3.20
2024-03-14T07:13:57.650Z,3.22
2024-03-14T07:16:25.010Z,2.83
2024-03-14T07:18:56.607Z,3.17
2024-03-14T07:21:23.983Z,2.88
2024-03-14T07:23:51.059Z,3.20
2024-03-14T07:26:24.680Z,2.78
2024-03-14T07:28:55.273Z,2.83
2024-03-14T07:31:22.338Z,3.17
2024-03-14T07:33:53.563Z,3.17
2024-03-14T07:36:25.150Z,3.42
2024-03-14T07:38:51.986Z,3.08
2024-03-14T07:41:23.301Z,3.17
2024-03-14T07:44:04.836Z,3.22
2024-03-14T07:46:41.150Z,3.08
2024-03-14T07:49:07.977Z,2.70
2024-03-14T07:51:34.775Z,2.75
2024-03-14T07:54:01.549Z,2.78
2024-03-14T07:56:30.914Z,3.05
2024-03-14T07:58:57.716Z,2.40
2024-03-14T08:01:29.122Z,2.90
2024-03-14T08:03:59.040Z,3.10
2024-03-14T08:06:26.124Z,3.03
2024-03-14T08:08:53.180Z,3.08
2024-03-14T08:11:23.636Z,3.05
2024-03-14T08:14:00.105Z,3.38
2024-03-14T08:16:27.402Z,3.40
2024-03-14T08:18:54.628Z,3.28
2024-03-14T08:21:24.071Z,3.00
2024-03-14T08:23:51.040Z,3.50
2024-03-14T08:26:18.641Z,3.05
2024-03-14T08:28:47.002Z,2.80
2024-03-14T08:31:17.081Z,2.95
2024-03-14T08:33:49.468Z,3.00
2024-03-14T08:36:18.373Z,3.10
2024-03-14T08:38:45.971Z,2.72
2024-03-14T08:41:14.737Z,2.80
2024-03-14T08:43:43.520Z,3.08
2024-03-14T08:46:10.257Z,3.40
2024-03-14T08:48:37.405Z,2.58
2024-03-14T08:51:05.550Z,3.00
2024-03-14T08:53:52.388Z,2.58
2024-03-14T08:56:20.808Z,2.38
2024-03-14T08:58:48.520Z,2.80
2024-03-14T09:01:15.428Z,2.65
2024-03-14T09:03:42.252Z,2.78
2024-03-14T09:06:09.048Z,3.05
2024-03-14T09:08:37.019Z,2.95
2024-03-14T09:11:04.763Z,2.78
2024-03-14T09:13:32.405Z,2.80
2024-03-14T09:15:59.141Z,2.80
2024-03-14T09:18:27.658Z,2.95
2024-03-14T09:20:56.773Z,2.67
2024-03-14T09:23:26.436Z,2.80
2024-03-14T09:25:53.316Z,2.92
2024-03-14T09:28:19.917Z,2.80
2024-03-14T09:30:46.823Z,2.72
2024-03-14T09:33:13.881Z,3.03
2024-03-14T09:35:47.134Z,2.75
2024-03-14T09:38:14.383Z,2.25
2024-03-14T09:40:41.185Z,2.85
2024-03-14T09:43:15.068Z,2.92
2024-03-14T09:45:43.857Z,2.40
2024-03-14T09:48:13.515Z,2.33
2024-03-14T09:50:42.839Z,2.33
2024-03-14T09:53:15.736Z,2.50
2024-03-14T09:55:42.707Z,2.00
2024-03-14T09:58:09.964Z,1.90
2024-03-14T10:00:36.855Z,2.10
2024-03-14T10:03:07.112Z,2.05
2024-03-14T10:05:36.566Z,2.20
2024-03-14T10:08:06.397Z,1.98
2024-03-14T10:10:36.456Z,2.05
2024-03-14T10:13:03.639Z,1.85
2024-03-14T10:15:30.483Z,2.22
2024-03-14T10:17:58.648Z,1.90
2024-03-14T10:20:25.733Z,2.00
2024-03-14T10:22:52.924Z,1.88
2024-03-14T10:25:29.296Z,1.83
2024-03-14T10:28:06.291Z,2.10
2024-03-14T10:30:38.931Z,2.10
2024-03-14T10:33:11.325Z,1.60
2024-03-14T10:35:39.498Z,1.90
2024-03-14T10:38:12.584Z,1.63
2024-03-14T10:40:43.092Z,1.83
2024-03-14T10:43:12.054Z,1.48
2024-03-14T10:45:39.404Z,1.42
2024-03-14T10:48:09.101Z,1.80
2024-03-14T10:50:38.114Z,1.85
2024-03-14T10:53:06.914Z,1.63
2024-03-14T10:55:35.364Z,2.22
2024-03-14T10:58:06.365Z,1.75
2024-03-14T11:00:34.889Z,1.70
2024-03-14T11:03:03.231Z,1.63
2024-03-14T11:05:30.169Z,1.50
2024-03-14T11:07:58.023Z,1.70
2024-03-14T11:10:32.813Z,1.70
2024-03-14T11:13:06.885Z,1.70
2024-03-14T11:15:38.154Z,1.67
2024-03-14T11:18:18.237Z,1.35
2024-03-14T11:20:51.196Z,1.42
2024-03-14T11:23:24.128Z,1.40
2024-03-14T11:25:56.794Z,1.33
2024-03-14T11:28:25.812Z,1.35
2024-03-14T11:30:53.217Z,1.30
2024-03-14T11:33:20.998Z,1.70
2024-03-14T11:35:49.347Z,1.30
2024-03-14T11:38:22.104Z,1.50
2024-03-14T11:40:58.400Z,1.38
2024-03-14T11:43:27.549Z,1.50
2024-03-14T11:45:56.177Z,1.63
2024-03-14T11:48:26.046Z,1.70
2024-03-14T11:50:55.069Z,1.67
2024-03-14T11:53:22.328Z,1.88
2024-03-14T11:55:55.509Z,2.20
2024-03-14T11:58:30.030Z,1.90
2024-03-14T12:00:56.961Z,1.90
2024-03-14T12:03:24.117Z,2.25
2024-03-14T12:05:59.215Z,2.20
2024-03-14T12:08:26.259Z,1.92
2024-03-14T12:10:56.809Z,1.98
2024-03-14T12:13:28.037Z,2.42
2024-03-14T12:15:59.267Z,2.10
2024-03-14T12:18:26.169Z,2.00
2024-03-14T12:20:54.914Z,2.45
2024-03-14T12:23:24.974Z,2.50
2024-03-14T12:25:52.802Z,2.70
2024-03-14T12:28:20.413Z,2.22
2024-03-14T12:30:57.933Z,2.90
2024-03-14T12:33:28.368Z,2.90
2024-03-14T12:35:55.937Z,2.60
2024-03-14T12:38:28.798Z,2.75
2024-03-14T12:40:59.116Z,2.83
2024-03-14T12:43:31.976Z,2.67
2024-03-14T12:46:01.967Z,2.83
2024-03-14T12:48:29.255Z,2.70
2024-03-14T12:51:13.440Z,3.03
2024-03-14T12:53:43.034Z,3.03
2024-03-14T12:56:10.131Z,2.90
2024-03-14T12:58:36.808Z,2.97
2024-03-14T13:01:04.980Z,3.10
2024-03-14T13:03:32.156Z,2.83
2024-03-14T13:05:58.899Z,3.30
2024-03-14T13:08:26.904Z,3.10
2024-03-14T13:11:16.399Z,3.30
2024-03-14T13:13:44.074Z,3.30
2024-03-14T13:16:24.389Z,2.97
2024-03-14T13:18:54.482Z,2.80
2024-03-14T13:21:26.827Z,3.03
2024-03-14T13:23:54.779Z,2.97
2024-03-14T13:26:24.416Z,2.70
2024-03-14T13:28:55.218Z,2.78
2024-03-14T13:31:22.817Z,2.90
2024-03-14T13:33:49.487Z,2.53
2024-03-14T13:36:17.655Z,2.60
2024-03-14T13:38:45.135Z,2.58
2024-03-14T13:41:14.029Z,2.78
2024-03-14T13:43:41.066Z,2.60
2024-03-14T13:46:09.576Z,2.85
2024-03-14T13:48:37.543Z,3.40
2024-03-14T13:51:08.431Z,3.08
2024-03-14T13:53:35.402Z,2.78
2024-03-14T13:56:02.425Z,2.13
2024-03-14T13:58:30.886Z,2.00
2024-03-14T14:01:03.746Z,2.20
2024-03-14T14:03:36.506Z,2.53
2024-03-14T14:06:07.161Z,2.60
2024-03-14T14:08:33.984Z,2.58
2024-03-14T14:11:04.983Z,2.70
2024-03-14T14:13:32.522Z,2.42
2024-03-14T14:15:59.278Z,2.28
2024-03-14T14:18:25.943Z,2.55
2024-03-14T14:20:52.690Z,2.60
2024-03-14T14:23:20.342Z,2.30
2024-03-14T14:25:46.985Z,2.30
2024-03-14T14:28:13.585Z,3.35
2024-03-14T14:30:42.879Z,3.30
2024-03-14T14:33:10.055Z,2.40
2024-03-14T14:35:39.656Z,3.00
2024-03-14T14:38:06.349Z,3.15
2024-03-14T14:40:33.025Z,2.78
2024-03-14T14:42:59.805Z,2.40
2024-03-14T14:45:26.869Z,2.40
2024-03-14T14:47:53.758Z,2.97
2024-03-14T14:50:21.119Z,2.25
2024-03-14T14:52:48.020Z,2.60
2024-03-14T14:55:14.863Z,2.25
2024-03-14T14:57:49.252Z,2.20
2024-03-14T15:00:17.265Z,2.05
2024-03-14T15:02:46.790Z,2.10
2024-03-14T15:05:14.208Z,1.98
2024-03-14T15:07:44.272Z,2.33
2024-03-14T15:10:17.261Z,2.17
2024-03-14T15:12:50.499Z,2.00
2024-03-14T15:15:25.038Z,2.88
2024-03-14T15:17:52.769Z,4.20
2024-03-14T15:20:23.635Z,2.00
2024-03-14T15:22:53.558Z,2.33
2024-03-14T15:25:22.150Z,4.15
2024-03-14T15:27:49.482Z,2.30
2024-03-14T15:30:17.698Z,1.95
2024-03-14T15:32:46.225Z,1.80
2024-03-14T15:35:15.607Z,1.80
2024-03-14T15:37:43.262Z,2.13
2024-03-14T15:40:11.437Z,1.83
2024-03-14T15:42:38.537Z,2.55
2024-03-14T15:45:06.684Z,1.80
2024-03-14T15:47:34.261Z,2.00
2024-03-14T15:50:01.268Z,2.00
2024-03-14T15:52:28.249Z,2.00
2024-03-14T15:54:54.942Z,2.10
2024-03-14T15:57:23.243Z,1.85
2024-03-14T15:59:50.359Z,2.00
2024-03-14T16:02:16.985Z,2.00
2024-03-14T16:04:46.532Z,2.03
2024-03-14T16:07:13.405Z,2.90
2024-03-14T16:09:41.770Z,2.55
2024-03-14T16:12:09.354Z,2.33
2024-03-14T16:14:36.796Z,2.65
2024-03-14T16:17:03.570Z,2.45
2024-03-14T16:19:30.395Z,2.33
2024-03-14T16:21:57.205Z,2.35
2024-03-14T16:24:24.120Z,2.70
2024-03-14T16:26:53.945Z,4.45
2024-03-14T16:29:21.592Z,3.50
2024-03-14T16:31:52.053Z,2.63
2024-03-14T16:34:18.930Z,2.95
2024-03-14T16:36:46.354Z,2.63
2024-03-14T16:39:20.355Z,2.95
2024-03-14T16:41:48.096Z,3.42
2024-03-14T16:44:15.382Z,3.03
2024-03-14T16:46:44.131Z,2.95
2024-03-14T16:49:12.591Z,2.50
2024-03-14T16:51:41.215Z,2.90
2024-03-14T16:54:09.965Z,2.85
2024-03-14T16:56:38.534Z,2.65
2024-03-14T16:59:07.495Z,3.00
2024-03-14T17:01:36.844Z,2.83
2024-03-14T17:04:04.080Z,3.20
2024-03-14T17:06:31.220Z,2.70
2024-03-14T17:08:58.053Z,3.10
2024-03-14T17:11:24.984Z,2.90
2024-03-14T17:13:53.392Z,2.75
2024-03-14T17:16:24.593Z,3.28
2024-03-14T17:18:53.408Z,2.80
2024-03-14T17:21:22.072Z,3.35
2024-03-14T17:23:48.978Z,3.47
2024-03-14T17:26:16.118Z,3.53
2024-03-14T17:28:44.185Z,3.38
2024-03-14T17:31:11.056Z,3.72
2024-03-14T17:33:40.281Z,3.20
2024-03-14T17:36:07.816Z,3.20
2024-03-14T17:38:34.745Z,5.57
2024-03-14T17:41:05.794Z,4.43
2024-03-14T17:43:33.392Z,3.05
2024-03-14T17:46:00.702Z,3.63
2024-03-14T17:48:27.773Z,3.15
2024-03-14T17:50:54.595Z,3.10
2024-03-14T17:53:21.244Z,3.03
2024-03-14T17:55:48.133Z,3.70
2024-03-14T17:58:14.911Z,2.97
2024-03-14T18:00:44.699Z,3.03
2024-03-14T18:03:11.916Z,3.13
2024-03-14T18:05:38.836Z,3.55
2024-03-14T18:08:05.915Z,3.65
2024-03-14T18:10:32.915Z,3.80
2024-03-14T18:13:00.161Z,4.28
2024-03-14T18:15:27.658Z,4.88
2024-03-14T18:17:54.386Z,4.78
2024-03-14T18:20:21.313Z,5.63
2024-03-14T18:22:50.351Z,4.60
2024-03-14T18:25:20.713Z,4.30
2024-03-14T18:27:50.539Z,3.50
2024-03-14T18:30:20.240Z,3.33
2024-03-14T18:32:48.750Z,3.08
2024-03-14T18:35:18.966Z,3.38
2024-03-14T18:37:47.283Z,3.17
2024-03-14T18:40:14.473Z,3.40
2024-03-14T18:42:41.493Z,3.55
2024-03-14T18:45:10.011Z,3.58
2024-03-14T18:47:37.073Z,3.10
2024-03-14T18:50:04.330Z,2.92
2024-03-14T18:52:31.068Z,3.33
2024-03-14T18:54:59.635Z,3.92
2024-03-14T18:57:27.806Z,3.83
2024-03-14T18:59:54.629Z,4.13
2024-03-14T19:02:22.813Z,5.10
2024-03-14T19:04:50.308Z,6.07
2024-03-14T19:07:18.447Z,7.47
2024-03-14T19:09:45.691Z,10.00
2024-03-14T19:12:12.938Z,8.60
2024-03-14T19:14:42.149Z,6.40
2024-03-14T19:17:10.256Z,4.93
2024-03-14T19:19:38.539Z,5.65
2024-03-14T19:22:05.206Z,4.22
2024-03-14T19:24:32.123Z,4.80
2024-03-14T19:27:00.655Z,5.60
2024-03-14T19:29:28.538Z,7.20
2024-03-14T19:31:59.098Z,4.72
2024-03-14T19:34:29.023Z,4.82
2024-03-14T19:36:57.146Z,4.90
2024-03-14T19:39:24.539Z,6.30
2024-03-14T19:41:53.226Z,11.18
2024-03-14T19:44:19.873Z,13.07
2024-03-14T19:46:47.283Z,13.30
2024-03-14T19:49:14.131Z,15.40
2024-03-14T19:51:41.185Z,14.50
2024-03-14T19:54:08.162Z,14.00
2024-03-14T19:56:38.998Z,24.02
2024-03-14T19:59:05.791Z,18.13
2024-03-14T20:01:33.565Z,17.48
2024-03-14T20:04:00.952Z,14.70
2024-03-14T20:06:27.731Z,10.32
2024-03-14T20:08:56.088Z,12.93
2024-03-14T20:11:23.638Z,14.88
2024-03-14T20:13:51.170Z,11.93
2024-03-14T20:16:21.416Z,7.95
2024-03-14T20:18:48.813Z,5.55
2024-03-14T20:21:16.006Z,5.97
2024-03-14T20:23:45.030Z,8.77
2024-03-14T20:26:13.032Z,7.65
2024-03-14T20:28:40.465Z,7.55
2024-03-14T20:31:09.053Z,7.15
2024-03-14T20:33:36.637Z,5.82
2024-03-14T20:36:05.535Z,5.72
2024-03-14T20:38:33.252Z,5.32
2024-03-14T20:41:03.075Z,4.80
2024-03-14T20:43:31.419Z,4.13
2024-03-14T20:45:58.274Z,4.82
2024-03-14T20:48:25.527Z,5.18
2024-03-14T20:50:52.385Z,4.90
2024-03-14T20:53:19.576Z,7.63
2024-03-14T20:56:00.417Z,7.45
2024-03-14T20:58:32.579Z,6.18
2024-03-14T21:00:59.211Z,5.10
2024-03-14T21:03:25.896Z,5.78
2024-03-14T21:05:52.620Z,5.72
2024-03-14T21:08:19.843Z,5.80
2024-03-14T21:10:46.814Z,7.20
2024-03-14T21:13:13.645Z,7.65
2024-03-14T21:15:41.278Z,7.05
2024-03-14T21:18:08.826Z,7.70
2024-03-14T21:20:35.618Z,6.65
2024-03-14T21:23:04.077Z,9.35
2024-03-14T21:25:30.807Z,8.15
2024-03-14T21:28:01.181Z,8.98
2024-03-14T21:30:28.198Z,8.05
2024-03-14T21:32:55.310Z,8.23
2024-03-14T21:35:25.336Z,6.63
2024-03-14T21:37:53.007Z,7.55
2024-03-14T21:40:23.617Z,5.38
2024-03-14T21:42:51.508Z,5.57
2024-03-14T21:45:19.707Z,6.50
2024-03-14T21:47:47.447Z,7.05
2024-03-14T21:50:15.760Z,7.07
2024-03-14T21:52:42.708Z,8.10
2024-03-14T21:55:09.451Z,8.30
2024-03-14T21:57:37.220Z,17.13
2024-03-14T22:00:04.735Z,7.95
2024-03-14T22:02:33.538Z,9.02
2024-03-14T22:05:00.969Z,5.93
2024-03-14T22:07:28.010Z,4.93
2024-03-14T22:09:54.720Z,5.03
2024-03-14T22:12:24.001Z,4.38
2024-03-14T22:14:51.210Z,4.07
2024-03-14T22:17:17.794Z,4.28
2024-03-14T22:19:44.490Z,3.70
2024-03-14T22:22:11.184Z,4.25
2024-03-14T22:24:37.854Z,4.57
2024-03-14T22:27:05.480Z,4.78
2024-03-14T22:29:32.186Z,5.53
2024-03-14T22:31:58.886Z,8.68
2024-03-14T22:34:26.545Z,7.75
2024-03-14T22:36:55.213Z,5.78
2024-03-14T22:39:22.345Z,5.03
2024-03-14T22:41:49.112Z,4.80
2024-03-14T22:44:16.963Z,4.70
2024-03-14T22:46:43.592Z,4.05
2024-03-14T22:49:10.934Z,3.80
2024-03-14T22:51:38.194Z,3.85
2024-03-14T22:54:04.980Z,3.50
2024-03-14T22:56:31.652Z,4.05
2024-03-14T22:58:58.258Z,3.50
2024-03-14T23:01:24.924Z,3.80
2024-03-14T23:03:51.646Z,3.50
2024-03-14T23:06:18.573Z,4.10
2024-03-14T23:08:45.398Z,3.67
2024-03-14T23:11:14.555Z,4.30
2024-03-14T23:13:41.347Z,4.75
2024-03-14T23:16:08.946Z,4.15
2024-03-14T23:18:35.829Z,5.40
2024-03-14T23:21:02.690Z,7.40
2024-03-14T23:23:29.445Z,4.40
2024-03-14T23:25:57.097Z,3.90
2024-03-14T23:28:25.874Z,3.95
2024-03-14T23:30:52.770Z,3.83
2024-03-14T23:33:19.894Z,3.72
2024-03-14T23:35:47.830Z,3.67
2024-03-14T23:38:14.757Z,4.03
2024-03-14T23:40:41.674Z,3.38
2024-03-14T23:43:08.600Z,3.88
2024-03-14T23:45:35.784Z,3.38
2024-03-14T23:48:03.171Z,3.22
2024-03-14T23:50:30.201Z,3.90
2024-03-14T23:52:57.055Z,4.10
2024-03-14T23:55:23.976Z,3.80
2024-03-14T23:57:51.016Z,3.97
